FLT555 TJSJ-TIST
Flight info
| Callsign | FLT555 |
|---|---|
| Flight time | 0h 22m |
| Altitude | 5000 |
| Route | SJU RTE2 STT |
| Aircraft | C408/L-VGD/C |
Departure
| Time | 2026-04-29 02:13 |
|---|---|
| Airport | Luis Munoz Marin International Airport (TJSJ) |
Arrival
| Time | 2026-04-29 02:36 |
|---|---|
| Airport | Cyril E. King Airport (TIST) |
| Time | Latitude | Longitude | Altitude | Speed | Heading |
|---|---|---|---|---|---|
| 2026-04-29 01:55 | 18.44142 | -66.00116 | 15 ft | 0 kts | 337° |
| 2026-04-29 02:10 | 18.44155 | -66.00134 | 15 ft | 3 kts | 272° |
| 2026-04-29 02:10 | 18.44148 | -66.00177 | 15 ft | 5 kts | 314° |
| 2026-04-29 02:10 | 18.44180 | -66.00200 | 16 ft | 7 kts | 326° |
| 2026-04-29 02:11 | 18.44246 | -66.00252 | 16 ft | 12 kts | 297° |
| 2026-04-29 02:11 | 18.44219 | -66.00336 | 16 ft | 15 kts | 244° |
| 2026-04-29 02:11 | 18.44179 | -66.00436 | 16 ft | 18 kts | 248° |
| 2026-04-29 02:11 | 18.44157 | -66.00587 | 17 ft | 18 kts | 282° |
| 2026-04-29 02:12 | 18.44211 | -66.00614 | 19 ft | 13 kts | 15° |
| 2026-04-29 02:12 | 18.44239 | -66.00597 | 17 ft | 0 kts | 76° |
| 2026-04-29 02:12 | 18.44239 | -66.00594 | 17 ft | 4 kts | 76° |
| 2026-04-29 02:13 | 18.44352 | -66.00311 | 15 ft | 79 kts | 66° |
| 2026-04-29 02:13 | 18.44651 | -65.99582 | 96 ft | 129 kts | 65° |
| 2026-04-29 02:13 | 18.45027 | -65.98652 | 482 ft | 141 kts | 73° |
| 2026-04-29 02:13 | 18.45241 | -65.97651 | 1018 ft | 140 kts | 81° |
| 2026-04-29 02:14 | 18.45338 | -65.96655 | 1571 ft | 135 kts | 85° |
| 2026-04-29 02:14 | 18.45453 | -65.95672 | 2044 ft | 137 kts | 81° |
| 2026-04-29 02:14 | 18.45332 | -65.94686 | 2445 ft | 141 kts | 107° |
| 2026-04-29 02:14 | 18.45072 | -65.93673 | 2872 ft | 145 kts | 104° |
| 2026-04-29 02:15 | 18.44809 | -65.92634 | 3305 ft | 148 kts | 104° |
| 2026-04-29 02:15 | 18.44535 | -65.91578 | 3719 ft | 150 kts | 104° |
| 2026-04-29 02:15 | 18.44257 | -65.90508 | 4131 ft | 152 kts | 104° |
| 2026-04-29 02:15 | 18.43975 | -65.89438 | 4541 ft | 154 kts | 104° |
| 2026-04-29 02:16 | 18.43688 | -65.88349 | 4955 ft | 154 kts | 104° |
| 2026-04-29 02:16 | 18.43388 | -65.87208 | 5070 ft | 172 kts | 104° |
| 2026-04-29 02:16 | 18.43058 | -65.85943 | 5079 ft | 185 kts | 104° |
| 2026-04-29 02:16 | 18.42709 | -65.84612 | 5079 ft | 190 kts | 104° |
| 2026-04-29 02:17 | 18.42357 | -65.83260 | 5075 ft | 192 kts | 104° |
| 2026-04-29 02:17 | 18.42000 | -65.81903 | 5075 ft | 192 kts | 104° |
| 2026-04-29 02:17 | 18.41648 | -65.80557 | 5073 ft | 193 kts | 104° |
| 2026-04-29 02:17 | 18.41290 | -65.79190 | 5069 ft | 193 kts | 104° |
| 2026-04-29 02:18 | 18.40934 | -65.77827 | 5069 ft | 193 kts | 104° |
| 2026-04-29 02:18 | 18.40581 | -65.76469 | 5066 ft | 192 kts | 104° |
| 2026-04-29 02:18 | 18.40227 | -65.75110 | 5066 ft | 192 kts | 104° |
| 2026-04-29 02:18 | 18.39870 | -65.73749 | 5068 ft | 193 kts | 104° |
| 2026-04-29 02:19 | 18.39519 | -65.72405 | 5064 ft | 193 kts | 104° |
| 2026-04-29 02:19 | 18.39160 | -65.71043 | 5063 ft | 193 kts | 104° |
| 2026-04-29 02:19 | 18.38805 | -65.69683 | 5061 ft | 192 kts | 104° |
| 2026-04-29 02:19 | 18.38452 | -65.68326 | 5060 ft | 192 kts | 104° |
| 2026-04-29 02:20 | 18.38097 | -65.66968 | 5059 ft | 193 kts | 104° |
| 2026-04-29 02:20 | 18.37743 | -65.65609 | 5056 ft | 192 kts | 104° |
| 2026-04-29 02:20 | 18.37390 | -65.64250 | 5056 ft | 192 kts | 104° |
| 2026-04-29 02:20 | 18.37038 | -65.62889 | 5055 ft | 193 kts | 104° |
| 2026-04-29 02:21 | 18.36686 | -65.61527 | 5055 ft | 193 kts | 104° |
| 2026-04-29 02:21 | 18.36336 | -65.60184 | 5055 ft | 192 kts | 104° |
| 2026-04-29 02:21 | 18.35981 | -65.58826 | 5055 ft | 192 kts | 104° |
| 2026-04-29 02:21 | 18.35626 | -65.57470 | 5054 ft | 192 kts | 104° |
| 2026-04-29 02:22 | 18.35305 | -65.56120 | 5052 ft | 192 kts | 101° |
| 2026-04-29 02:22 | 18.35028 | -65.54731 | 5053 ft | 191 kts | 98° |
| 2026-04-29 02:22 | 18.34967 | -65.53355 | 5050 ft | 191 kts | 89° |
| 2026-04-29 02:22 | 18.34989 | -65.51958 | 5051 ft | 191 kts | 88° |
| 2026-04-29 02:23 | 18.35014 | -65.50555 | 5051 ft | 191 kts | 88° |
| 2026-04-29 02:23 | 18.35039 | -65.49160 | 5051 ft | 191 kts | 88° |
| 2026-04-29 02:23 | 18.35063 | -65.47763 | 5050 ft | 191 kts | 88° |
| 2026-04-29 02:23 | 18.35088 | -65.46363 | 5050 ft | 191 kts | 88° |
| 2026-04-29 02:24 | 18.35115 | -65.44963 | 5051 ft | 191 kts | 88° |
| 2026-04-29 02:24 | 18.35139 | -65.43583 | 5049 ft | 191 kts | 88° |
| 2026-04-29 02:24 | 18.35165 | -65.42184 | 5051 ft | 191 kts | 88° |
| 2026-04-29 02:25 | 18.35219 | -65.39385 | 5048 ft | 191 kts | 88° |
| 2026-04-29 02:25 | 18.35249 | -65.37983 | 5049 ft | 191 kts | 88° |
| 2026-04-29 02:25 | 18.35278 | -65.36613 | 5041 ft | 178 kts | 88° |
| 2026-04-29 02:25 | 18.35303 | -65.35326 | 4854 ft | 176 kts | 88° |
| 2026-04-29 02:26 | 18.35289 | -65.34034 | 4603 ft | 176 kts | 92° |
| 2026-04-29 02:26 | 18.35205 | -65.32742 | 4358 ft | 180 kts | 93° |
| 2026-04-29 02:26 | 18.35130 | -65.31440 | 4118 ft | 179 kts | 93° |
| 2026-04-29 02:26 | 18.35049 | -65.30149 | 3874 ft | 175 kts | 93° |
| 2026-04-29 02:27 | 18.34970 | -65.28901 | 3627 ft | 169 kts | 93° |
| 2026-04-29 02:27 | 18.34895 | -65.27758 | 3339 ft | 146 kts | 93° |
| 2026-04-29 02:27 | 18.34826 | -65.26716 | 3040 ft | 140 kts | 93° |
| 2026-04-29 02:27 | 18.34761 | -65.25703 | 2743 ft | 137 kts | 93° |
| 2026-04-29 02:28 | 18.34697 | -65.24701 | 2450 ft | 137 kts | 93° |
| 2026-04-29 02:28 | 18.34643 | -65.23697 | 2154 ft | 137 kts | 93° |
| 2026-04-29 02:28 | 18.34593 | -65.22698 | 1860 ft | 136 kts | 92° |
| 2026-04-29 02:28 | 18.34537 | -65.21727 | 1749 ft | 127 kts | 92° |
| 2026-04-29 02:29 | 18.34483 | -65.20822 | 1736 ft | 120 kts | 93° |
| 2026-04-29 02:29 | 18.34446 | -65.19971 | 1737 ft | 116 kts | 92° |
| 2026-04-29 02:29 | 18.34415 | -65.19126 | 1742 ft | 116 kts | 94° |
| 2026-04-29 02:29 | 18.34383 | -65.18274 | 1743 ft | 116 kts | 93° |
| 2026-04-29 02:30 | 18.34339 | -65.17419 | 1739 ft | 117 kts | 92° |
| 2026-04-29 02:30 | 18.34295 | -65.16564 | 1744 ft | 117 kts | 94° |
| 2026-04-29 02:30 | 18.34258 | -65.15710 | 1741 ft | 117 kts | 93° |
| 2026-04-29 02:30 | 18.34183 | -65.14866 | 1741 ft | 115 kts | 95° |
| 2026-04-29 02:31 | 18.34111 | -65.14033 | 1747 ft | 115 kts | 95° |
| 2026-04-29 02:31 | 18.34039 | -65.13188 | 1751 ft | 116 kts | 95° |
| 2026-04-29 02:31 | 18.33978 | -65.12340 | 1745 ft | 115 kts | 95° |
| 2026-04-29 02:31 | 18.33916 | -65.11509 | 1748 ft | 112 kts | 97° |
| 2026-04-29 02:32 | 18.33728 | -65.10715 | 1746 ft | 111 kts | 103° |
| 2026-04-29 02:32 | 18.33562 | -65.09913 | 1752 ft | 113 kts | 96° |
| 2026-04-29 02:32 | 18.33486 | -65.09106 | 1750 ft | 111 kts | 91° |
| 2026-04-29 02:32 | 18.33497 | -65.08292 | 1723 ft | 114 kts | 89° |
| 2026-04-29 02:33 | 18.33515 | -65.07447 | 1662 ft | 112 kts | 92° |
| 2026-04-29 02:33 | 18.33490 | -65.06601 | 1571 ft | 118 kts | 94° |
| 2026-04-29 02:33 | 18.33429 | -65.05752 | 1405 ft | 115 kts | 93° |
| 2026-04-29 02:33 | 18.33396 | -65.04912 | 1251 ft | 115 kts | 88° |
| 2026-04-29 02:34 | 18.33449 | -65.04068 | 1046 ft | 111 kts | 86° |
| 2026-04-29 02:34 | 18.33471 | -65.03280 | 842 ft | 107 kts | 89° |
| 2026-04-29 02:34 | 18.33481 | -65.02501 | 759 ft | 107 kts | 86° |
| 2026-04-29 02:34 | 18.33543 | -65.01707 | 685 ft | 110 kts | 84° |
| 2026-04-29 02:35 | 18.33568 | -65.00911 | 571 ft | 111 kts | 88° |
| 2026-04-29 02:35 | 18.33612 | -65.00069 | 393 ft | 112 kts | 86° |
| 2026-04-29 02:35 | 18.33645 | -64.99268 | 237 ft | 107 kts | 88° |
| 2026-04-29 02:35 | 18.33682 | -64.98494 | 94 ft | 104 kts | 86° |
| 2026-04-29 02:36 | 18.33715 | -64.97857 | 17 ft | 70 kts | 87° |
| 2026-04-29 02:36 | 18.33728 | -64.97525 | 20 ft | 11 kts | 87° |
| 2026-04-29 02:36 | 18.33754 | -64.97448 | 18 ft | 10 kts | 31° |
| 2026-04-29 02:36 | 18.33792 | -64.97423 | 16 ft | 7 kts | 36° |
| 2026-04-29 02:37 | 18.33812 | -64.97359 | 15 ft | 12 kts | 89° |
| 2026-04-29 02:37 | 18.33816 | -64.97251 | 15 ft | 17 kts | 87° |
| 2026-04-29 02:37 | 18.33824 | -64.97059 | 13 ft | 22 kts | 88° |
| 2026-04-29 02:37 | 18.33831 | -64.96884 | 11 ft | 26 kts | 86° |
| 2026-04-29 02:38 | 18.33839 | -64.96754 | 10 ft | 22 kts | 85° |
| 2026-04-29 02:38 | 18.33858 | -64.96696 | 10 ft | 7 kts | 2° |
| 2026-04-29 02:38 | 18.33902 | -64.96692 | 10 ft | 7 kts | 49° |
| 2026-04-29 02:38 | 18.33913 | -64.96622 | 10 ft | 11 kts | 91° |
| 2026-04-29 02:39 | 18.33910 | -64.96594 | 10 ft | 2 kts | 124° |
| 2026-04-29 02:39 | 18.33901 | -64.96590 | 10 ft | 0 kts | 186° |